createdAt,value
2023-04-28T00:00:16.806Z,0.00
2023-04-28T00:01:16.807Z,0.00
2023-04-28T00:02:16.835Z,0.00
2023-04-28T00:03:16.992Z,0.00
2023-04-28T00:04:17.533Z,0.00
2023-04-28T00:05:16.896Z,0.00
2023-04-28T00:06:16.776Z,0.00
2023-04-28T00:07:16.756Z,0.00
2023-04-28T00:08:16.770Z,0.00
2023-04-28T00:09:16.757Z,0.00
2023-04-28T00:10:16.792Z,0.00
2023-04-28T00:11:16.785Z,0.00
2023-04-28T00:12:16.753Z,0.00
2023-04-28T00:13:16.756Z,0.00
2023-04-28T00:14:17.035Z,0.00
2023-04-28T00:15:16.760Z,0.00
2023-04-28T00:16:16.787Z,0.00
2023-04-28T00:17:16.807Z,0.00
2023-04-28T00:18:16.849Z,0.00
2023-04-28T00:19:16.713Z,0.00
2023-04-28T00:20:16.723Z,0.00
2023-04-28T00:21:16.745Z,0.00
2023-04-28T00:22:16.720Z,0.00
2023-04-28T00:23:16.721Z,0.00
2023-04-28T00:24:16.882Z,0.00
2023-04-28T00:25:16.744Z,0.00
2023-04-28T00:26:16.702Z,0.00
2023-04-28T00:27:16.738Z,0.00
2023-04-28T00:28:30.526Z,0.00
2023-04-28T00:29:16.699Z,0.00
2023-04-28T00:30:16.682Z,0.00
2023-04-28T00:31:16.816Z,0.00
2023-04-28T00:32:16.694Z,0.00
2023-04-28T00:33:16.712Z,0.00
2023-04-28T00:34:17.147Z,0.00
2023-04-28T00:35:16.674Z,0.00
2023-04-28T00:36:16.693Z,0.00
2023-04-28T00:37:16.690Z,0.00
2023-04-28T00:38:16.666Z,0.00
2023-04-28T00:39:16.646Z,0.00
2023-04-28T00:40:16.667Z,0.00
2023-04-28T00:41:16.703Z,0.00
2023-04-28T00:42:16.637Z,0.00
2023-04-28T00:43:16.654Z,0.00
2023-04-28T00:44:16.932Z,0.00
2023-04-28T00:45:16.625Z,0.00
2023-04-28T00:46:16.687Z,0.00
2023-04-28T00:47:16.634Z,0.00
2023-04-28T00:48:16.624Z,0.00
2023-04-28T00:49:16.613Z,0.00
2023-04-28T00:50:16.616Z,0.00
2023-04-28T00:51:16.625Z,0.00
2023-04-28T00:52:16.624Z,0.00
2023-04-28T00:53:16.629Z,0.00
2023-04-28T00:54:16.841Z,0.00
2023-04-28T00:55:16.604Z,0.00
2023-04-28T00:56:16.598Z,0.00
2023-04-28T00:57:16.586Z,0.00
2023-04-28T00:58:16.586Z,0.00
2023-04-28T00:59:16.610Z,0.00
2023-04-28T01:00:16.597Z,0.00
2023-04-28T01:01:16.592Z,0.00
2023-04-28T01:02:16.709Z,0.00
2023-04-28T01:03:16.716Z,0.00
2023-04-28T01:04:16.889Z,0.00
2023-04-28T01:05:16.560Z,0.00
2023-04-28T01:06:16.569Z,0.00
2023-04-28T01:07:16.556Z,0.00
2023-04-28T01:08:16.558Z,0.00
2023-04-28T01:09:16.559Z,0.00
2023-04-28T01:10:16.564Z,0.00
2023-04-28T01:11:16.554Z,0.00
2023-04-28T01:12:16.552Z,0.00
2023-04-28T01:13:16.528Z,0.00
2023-04-28T01:14:16.892Z,0.00
2023-04-28T01:15:16.519Z,0.00
2023-04-28T01:16:16.547Z,0.00
2023-04-28T01:17:16.528Z,0.00
2023-04-28T01:18:16.529Z,0.00
2023-04-28T01:19:16.518Z,0.00
2023-04-28T01:20:16.543Z,0.00
2023-04-28T01:21:16.511Z,0.00
2023-04-28T01:22:16.569Z,0.00
2023-04-28T01:23:16.509Z,0.00
2023-04-28T01:24:16.757Z,0.00
2023-04-28T01:25:16.538Z,0.00
2023-04-28T01:26:16.481Z,0.00
2023-04-28T01:27:16.474Z,0.00
2023-04-28T01:28:16.496Z,0.00
2023-04-28T01:29:16.488Z,0.00
2023-04-28T01:30:16.476Z,0.00
2023-04-28T01:31:16.480Z,0.00
2023-04-28T01:32:16.489Z,0.00
2023-04-28T01:33:16.462Z,0.00
2023-04-28T01:34:16.799Z,0.00
2023-04-28T01:35:16.473Z,0.00
2023-04-28T01:36:16.456Z,0.00
2023-04-28T01:37:16.462Z,0.00
2023-04-28T01:38:16.485Z,0.00
2023-04-28T01:39:16.461Z,0.00
2023-04-28T01:40:16.483Z,0.00
2023-04-28T01:41:16.471Z,0.00
2023-04-28T01:42:16.428Z,0.00
2023-04-28T01:43:16.426Z,0.00
2023-04-28T01:44:16.542Z,0.00
2023-04-28T01:45:16.408Z,0.00
2023-04-28T01:46:16.459Z,0.00
2023-04-28T01:47:16.424Z,0.00
2023-04-28T01:48:16.411Z,0.00
2023-04-28T01:49:16.416Z,0.00
2023-04-28T01:50:16.428Z,0.00
2023-04-28T01:51:16.423Z,0.00
2023-04-28T01:52:16.424Z,0.00
2023-04-28T01:53:16.402Z,0.00
2023-04-28T01:54:16.666Z,0.00
2023-04-28T01:55:16.397Z,0.00
2023-04-28T01:56:16.403Z,0.00
2023-04-28T01:57:17.656Z,0.00
2023-04-28T01:58:16.378Z,0.00
2023-04-28T01:59:16.380Z,0.00
2023-04-28T02:00:16.373Z,0.00
2023-04-28T02:01:16.391Z,0.00
2023-04-28T02:02:16.424Z,0.00
2023-04-28T02:03:16.434Z,0.00
2023-04-28T02:04:16.719Z,0.00
2023-04-28T02:05:16.361Z,0.00
2023-04-28T02:06:16.366Z,0.00
2023-04-28T02:07:16.352Z,0.00
2023-04-28T02:08:16.360Z,0.00
2023-04-28T02:09:16.330Z,0.00
2023-04-28T02:10:16.354Z,0.00
2023-04-28T02:11:16.374Z,0.00
2023-04-28T02:12:16.337Z,0.00
2023-04-28T02:13:16.346Z,0.00
2023-04-28T02:14:16.822Z,0.00
2023-04-28T02:15:16.338Z,0.00
2023-04-28T02:16:16.340Z,0.00
2023-04-28T02:17:16.317Z,0.00
2023-04-28T02:18:16.295Z,0.00
2023-04-28T02:19:16.295Z,0.00
2023-04-28T02:20:16.293Z,0.00
2023-04-28T02:21:16.305Z,0.00
2023-04-28T02:22:16.310Z,0.00
2023-04-28T02:23:16.308Z,0.00
2023-04-28T02:24:16.640Z,0.00
2023-04-28T02:25:16.300Z,0.00
2023-04-28T02:26:16.264Z,0.00
2023-04-28T02:27:16.284Z,0.00
2023-04-28T02:28:16.258Z,0.00
2023-04-28T02:29:16.303Z,0.00
2023-04-28T02:30:16.282Z,0.00
2023-04-28T02:31:16.407Z,0.00
2023-04-28T02:32:16.267Z,0.00
2023-04-28T02:33:16.259Z,0.00
2023-04-28T02:34:16.636Z,0.00
2023-04-28T02:35:16.254Z,0.00
2023-04-28T02:36:16.247Z,0.00
2023-04-28T02:37:16.256Z,0.00
2023-04-28T02:38:16.277Z,0.00
2023-04-28T02:39:16.241Z,0.00
2023-04-28T02:40:16.235Z,0.00
2023-04-28T02:41:16.229Z,0.00
2023-04-28T02:42:16.229Z,0.00
2023-04-28T02:43:16.246Z,0.00
2023-04-28T02:44:16.570Z,0.00
2023-04-28T02:45:16.434Z,0.00
2023-04-28T02:46:16.231Z,0.00
2023-04-28T02:47:16.232Z,0.00
2023-04-28T02:48:16.217Z,0.00
2023-04-28T02:49:16.243Z,0.00
2023-04-28T02:50:16.297Z,0.00
2023-04-28T02:51:16.289Z,0.00
2023-04-28T02:52:16.298Z,0.00
2023-04-28T02:53:16.306Z,0.00
2023-04-28T02:54:16.560Z,0.00
2023-04-28T02:55:16.189Z,0.00
2023-04-28T02:56:16.174Z,0.00
2023-04-28T02:57:16.170Z,0.00
2023-04-28T02:58:16.193Z,0.00
2023-04-28T02:59:16.167Z,0.00
2023-04-28T03:00:16.158Z,0.00
2023-04-28T03:01:16.237Z,0.00
2023-04-28T03:02:16.176Z,0.00
2023-04-28T03:03:16.434Z,0.00
2023-04-28T03:04:16.437Z,0.00
2023-04-28T03:05:16.154Z,0.00
2023-04-28T03:06:16.158Z,0.00
2023-04-28T03:07:16.124Z,0.00
2023-04-28T03:08:16.127Z,0.00
2023-04-28T03:09:16.125Z,0.00
2023-04-28T03:10:16.119Z,0.00
2023-04-28T03:11:16.143Z,0.00
2023-04-28T03:12:16.115Z,0.00
2023-04-28T03:13:16.120Z,0.00
2023-04-28T03:14:16.421Z,0.00
2023-04-28T03:15:16.118Z,0.00
2023-04-28T03:16:16.163Z,0.00
2023-04-28T03:17:16.124Z,0.00
2023-04-28T03:18:16.094Z,0.00
2023-04-28T03:19:16.080Z,0.00
2023-04-28T03:20:16.109Z,0.00
2023-04-28T03:21:16.101Z,0.00
2023-04-28T03:22:16.068Z,0.00
2023-04-28T03:23:16.073Z,0.00
2023-04-28T03:24:16.228Z,0.00
2023-04-28T03:25:16.061Z,0.00
2023-04-28T03:26:16.066Z,0.00
2023-04-28T03:27:16.057Z,0.00
2023-04-28T03:28:16.064Z,0.00
2023-04-28T03:29:16.063Z,0.00
2023-04-28T03:30:16.049Z,0.00
2023-04-28T03:31:16.044Z,0.00
2023-04-28T03:32:16.136Z,0.00
2023-04-28T03:33:16.077Z,0.00
2023-04-28T03:34:16.337Z,0.00
2023-04-28T03:35:16.041Z,0.00
2023-04-28T03:36:16.024Z,0.00
2023-04-28T03:37:16.031Z,0.00
2023-04-28T03:38:16.015Z,0.00
2023-04-28T03:39:16.023Z,0.00
2023-04-28T03:40:16.020Z,0.00
2023-04-28T03:41:16.035Z,0.00
2023-04-28T03:42:15.999Z,0.00
2023-04-28T03:43:16.014Z,0.00
2023-04-28T03:44:16.105Z,0.00
2023-04-28T03:45:15.988Z,0.00
2023-04-28T03:46:16.059Z,0.00
2023-04-28T03:47:16.019Z,0.00
2023-04-28T03:48:16.049Z,0.00
2023-04-28T03:49:16.008Z,0.00
2023-04-28T03:50:15.978Z,0.00
2023-04-28T03:51:15.981Z,0.00
2023-04-28T03:52:15.972Z,0.00
2023-04-28T03:53:15.959Z,0.00
2023-04-28T03:54:16.118Z,0.00
2023-04-28T03:55:15.957Z,0.00
2023-04-28T03:56:15.946Z,0.00
2023-04-28T03:57:15.964Z,0.00
2023-04-28T03:58:15.960Z,0.00
2023-04-28T03:59:15.938Z,0.00
2023-04-28T04:00:15.937Z,0.00
2023-04-28T04:01:15.933Z,0.00
2023-04-28T04:02:16.009Z,0.00
2023-04-28T04:03:16.179Z,0.00
2023-04-28T04:04:16.418Z,0.00
2023-04-28T04:05:16.167Z,0.00
2023-04-28T04:06:15.939Z,0.00
2023-04-28T04:07:15.918Z,0.00
2023-04-28T04:08:15.911Z,0.00
2023-04-28T04:09:15.936Z,0.00
2023-04-28T04:10:15.915Z,0.00
2023-04-28T04:11:15.906Z,0.00
2023-04-28T04:12:15.901Z,0.00
2023-04-28T04:13:15.965Z,0.00
2023-04-28T04:14:16.268Z,0.00
2023-04-28T04:15:15.882Z,0.00
2023-04-28T04:16:16.085Z,0.00
2023-04-28T04:17:15.884Z,0.00
2023-04-28T04:18:15.873Z,0.00
2023-04-28T04:19:15.865Z,0.00
2023-04-28T04:20:15.880Z,0.00
2023-04-28T04:21:15.894Z,0.00
2023-04-28T04:22:15.856Z,0.00
2023-04-28T04:23:15.865Z,0.00
2023-04-28T04:24:16.202Z,0.00
2023-04-28T04:25:15.865Z,0.00
2023-04-28T04:26:15.866Z,0.00
2023-04-28T04:27:15.858Z,0.00
2023-04-28T04:28:15.865Z,0.00
2023-04-28T04:29:15.850Z,0.00
2023-04-28T04:30:15.857Z,0.00
2023-04-28T04:31:15.906Z,0.00
2023-04-28T04:32:15.840Z,0.00
2023-04-28T04:33:15.837Z,0.00
2023-04-28T04:34:16.112Z,0.00
2023-04-28T04:35:15.829Z,0.00
2023-04-28T04:36:15.804Z,0.00
2023-04-28T04:37:15.892Z,0.00
2023-04-28T04:38:15.799Z,0.00
2023-04-28T04:39:15.821Z,0.00
2023-04-28T04:40:15.826Z,0.00
2023-04-28T04:41:15.789Z,0.00
2023-04-28T04:42:24.970Z,0.00
2023-04-28T04:43:15.794Z,0.00
2023-04-28T04:44:16.050Z,0.00
2023-04-28T04:45:15.765Z,0.00
2023-04-28T04:46:15.785Z,0.00
2023-04-28T04:47:15.788Z,0.00
2023-04-28T04:48:15.753Z,0.00
2023-04-28T04:49:15.773Z,0.00
2023-04-28T04:50:15.755Z,0.00
2023-04-28T04:51:15.762Z,0.00
2023-04-28T04:52:15.752Z,0.00
2023-04-28T04:53:16.539Z,0.00
2023-04-28T04:54:15.922Z,0.00
2023-04-28T04:55:15.739Z,0.00
2023-04-28T04:56:15.742Z,0.00
2023-04-28T04:57:15.746Z,0.00
2023-04-28T04:58:15.736Z,0.00
2023-04-28T04:59:15.724Z,0.00
2023-04-28T05:00:15.714Z,0.00
2023-04-28T05:01:15.732Z,0.00
2023-04-28T05:02:15.869Z,0.00
2023-04-28T05:03:15.848Z,0.00
2023-04-28T05:04:16.251Z,0.00
2023-04-28T05:05:21.074Z,0.00
2023-04-28T05:06:15.716Z,0.00
2023-04-28T05:07:18.329Z,0.00
2023-04-28T05:08:15.692Z,0.00
2023-04-28T05:09:15.737Z,0.00
2023-04-28T05:10:15.692Z,0.00
2023-04-28T05:11:15.704Z,0.00
2023-04-28T05:12:15.689Z,0.00
2023-04-28T05:13:15.712Z,0.00
2023-04-28T05:14:16.032Z,0.00
2023-04-28T05:15:15.680Z,0.00
2023-04-28T05:16:15.678Z,0.00
2023-04-28T05:17:15.696Z,0.00
2023-04-28T05:18:15.710Z,0.00
2023-04-28T05:19:15.691Z,0.00
2023-04-28T05:20:15.681Z,0.00
2023-04-28T05:21:15.699Z,0.00
2023-04-28T05:22:15.664Z,0.00
2023-04-28T05:23:15.662Z,0.00
2023-04-28T05:24:16.026Z,0.00
2023-04-28T05:25:15.674Z,0.00
2023-04-28T05:26:15.644Z,0.00
2023-04-28T05:27:15.652Z,0.00
2023-04-28T05:28:15.637Z,0.00
2023-04-28T05:29:15.632Z,0.00
2023-04-28T05:30:15.656Z,0.00
2023-04-28T05:31:15.654Z,0.00
2023-04-28T05:32:15.666Z,0.00
2023-04-28T05:33:15.632Z,0.00
2023-04-28T05:34:15.973Z,0.00
2023-04-28T05:35:15.657Z,0.00
2023-04-28T05:36:15.632Z,0.00
2023-04-28T05:37:15.625Z,0.00
2023-04-28T05:38:15.645Z,0.00
2023-04-28T05:39:15.615Z,0.00
2023-04-28T05:40:15.620Z,0.00
2023-04-28T05:41:15.639Z,0.00
2023-04-28T05:42:15.615Z,0.00
2023-04-28T05:43:15.606Z,0.00
2023-04-28T05:44:15.815Z,0.00
2023-04-28T05:45:15.612Z,0.00
2023-04-28T05:46:28.936Z,0.00
2023-04-28T05:47:15.625Z,0.00
2023-04-28T05:48:15.592Z,0.00
2023-04-28T05:49:15.592Z,0.00
2023-04-28T05:50:15.585Z,0.00
2023-04-28T05:51:15.592Z,0.00
2023-04-28T05:52:15.577Z,0.00
2023-04-28T05:53:15.586Z,0.00
2023-04-28T05:54:15.738Z,0.00
2023-04-28T05:55:15.578Z,0.00
2023-04-28T05:56:15.572Z,0.00
2023-04-28T05:57:15.585Z,0.00
2023-04-28T05:58:15.558Z,0.00
2023-04-28T05:59:15.926Z,0.00
2023-04-28T06:00:15.544Z,0.00
2023-04-28T06:01:15.564Z,0.00
2023-04-28T06:02:15.554Z,0.00
2023-04-28T06:03:15.694Z,0.00
2023-04-28T06:04:15.999Z,0.00
2023-04-28T06:05:15.719Z,0.00
2023-04-28T06:06:15.565Z,0.00
2023-04-28T06:07:15.554Z,0.00
2023-04-28T06:08:15.545Z,0.00
2023-04-28T06:09:15.735Z,0.00
2023-04-28T06:10:15.542Z,0.00
2023-04-28T06:11:15.554Z,0.00
2023-04-28T06:12:15.527Z,0.00
2023-04-28T06:13:15.534Z,0.00
2023-04-28T06:14:15.798Z,0.00
2023-04-28T06:15:15.524Z,0.00
2023-04-28T06:16:15.571Z,0.00
2023-04-28T06:17:15.524Z,0.00
2023-04-28T06:18:15.502Z,0.00
2023-04-28T06:19:15.523Z,0.00
2023-04-28T06:20:15.533Z,0.00
2023-04-28T06:21:15.507Z,0.00
2023-04-28T06:22:15.497Z,0.00
2023-04-28T06:23:15.499Z,0.00
2023-04-28T06:24:15.650Z,0.00
2023-04-28T06:25:15.498Z,0.00
2023-04-28T06:26:17.972Z,0.00
2023-04-28T06:27:15.492Z,0.00
2023-04-28T06:28:15.488Z,0.00
2023-04-28T06:29:15.498Z,0.00
2023-04-28T06:30:15.480Z,0.00
2023-04-28T06:31:15.502Z,0.00
2023-04-28T06:32:15.456Z,0.00
2023-04-28T06:33:15.500Z,0.00
2023-04-28T06:34:15.698Z,0.00
2023-04-28T06:35:15.466Z,0.00
2023-04-28T06:36:15.475Z,0.00
2023-04-28T06:37:15.465Z,0.00
2023-04-28T06:38:15.460Z,0.00
2023-04-28T06:39:15.480Z,0.00
2023-04-28T06:40:15.460Z,0.00
2023-04-28T06:41:15.461Z,0.00
2023-04-28T06:42:15.449Z,0.00
2023-04-28T06:43:15.445Z,0.00
2023-04-28T06:44:15.719Z,0.00
2023-04-28T06:45:15.514Z,0.00
2023-04-28T06:46:15.459Z,0.00
2023-04-28T06:47:15.426Z,0.00
2023-04-28T06:48:15.444Z,0.00
2023-04-28T06:49:15.430Z,0.00
2023-04-28T06:50:15.430Z,0.00
2023-04-28T06:51:15.442Z,0.00
2023-04-28T06:52:15.425Z,0.00
2023-04-28T06:53:15.430Z,0.00
2023-04-28T06:54:15.525Z,0.00
2023-04-28T06:55:15.392Z,5.63
2023-04-28T06:56:15.409Z,5.63
2023-04-28T06:57:15.406Z,5.63
2023-04-28T06:58:15.411Z,5.63
2023-04-28T06:59:15.557Z,5.63
2023-04-28T07:00:15.412Z,5.63
2023-04-28T07:01:15.471Z,5.63
2023-04-28T07:02:15.404Z,5.63
2023-04-28T07:03:15.453Z,5.63
2023-04-28T07:04:15.579Z,5.63
2023-04-28T07:05:16.555Z,5.63
2023-04-28T07:06:15.368Z,5.63
2023-04-28T07:07:15.382Z,0.00
2023-04-28T07:08:15.388Z,0.00
2023-04-28T07:09:15.357Z,0.00
2023-04-28T07:10:15.357Z,0.00
2023-04-28T07:11:15.385Z,0.00
2023-04-28T07:12:15.369Z,0.00
2023-04-28T07:13:15.351Z,0.00
2023-04-28T07:14:15.563Z,0.00
2023-04-28T07:15:15.350Z,0.00
2023-04-28T07:16:15.402Z,0.00
2023-04-28T07:17:15.357Z,0.00
2023-04-28T07:18:15.379Z,0.00
2023-04-28T07:19:15.350Z,0.00
2023-04-28T07:20:15.349Z,0.00
2023-04-28T07:21:15.334Z,0.00
2023-04-28T07:22:15.330Z,0.00
2023-04-28T07:23:15.320Z,0.00
2023-04-28T07:24:15.494Z,0.00
2023-04-28T07:25:15.311Z,0.00
2023-04-28T07:26:15.520Z,0.00
2023-04-28T07:27:15.310Z,0.00
2023-04-28T07:28:15.323Z,0.00
2023-04-28T07:29:15.322Z,0.00
2023-04-28T07:30:26.721Z,0.00
2023-04-28T07:31:15.315Z,0.00
2023-04-28T07:32:15.540Z,0.00
2023-04-28T07:33:15.396Z,0.00
2023-04-28T07:34:15.566Z,0.00
2023-04-28T07:35:15.310Z,5.63
2023-04-28T07:36:15.300Z,5.63
2023-04-28T07:37:15.283Z,5.63
2023-04-28T07:38:15.294Z,5.63
2023-04-28T07:39:15.285Z,0.00
2023-04-28T07:40:15.296Z,0.00
2023-04-28T07:41:15.285Z,0.00
2023-04-28T07:42:15.270Z,0.00
2023-04-28T07:43:15.294Z,11.25
2023-04-28T07:44:15.517Z,11.25
2023-04-28T07:45:15.261Z,5.63
2023-04-28T07:46:15.341Z,5.63
2023-04-28T07:47:15.270Z,5.63
2023-04-28T07:48:15.276Z,5.63
2023-04-28T07:49:15.474Z,11.25
2023-04-28T07:50:15.258Z,5.63
2023-04-28T07:51:15.255Z,11.25
2023-04-28T07:52:15.243Z,11.25
2023-04-28T07:53:15.245Z,5.63
2023-04-28T07:54:15.699Z,11.25
2023-04-28T07:55:15.220Z,11.25
2023-04-28T07:56:15.260Z,5.63
2023-04-28T07:57:15.228Z,5.63
2023-04-28T07:58:15.240Z,11.25
2023-04-28T07:59:15.224Z,11.25
2023-04-28T08:00:15.216Z,5.63
2023-04-28T08:01:15.204Z,5.63
2023-04-28T08:02:15.268Z,5.63
2023-04-28T08:03:15.375Z,11.25
2023-04-28T08:04:15.538Z,16.88
2023-04-28T08:05:15.515Z,16.88
2023-04-28T08:06:15.189Z,11.25
2023-04-28T08:07:15.200Z,16.88
2023-04-28T08:08:15.220Z,16.88
2023-04-28T08:09:15.190Z,28.13
2023-04-28T08:10:15.200Z,28.13
2023-04-28T08:11:15.194Z,22.50
2023-04-28T08:12:15.206Z,28.13
2023-04-28T08:13:15.189Z,61.88
2023-04-28T08:14:15.336Z,50.63
2023-04-28T08:15:16.602Z,45.00
2023-04-28T08:16:15.181Z,16.88
2023-04-28T08:17:15.155Z,16.88
2023-04-28T08:18:15.199Z,22.50
2023-04-28T08:19:15.155Z,22.50
2023-04-28T08:20:15.164Z,11.25
2023-04-28T08:21:15.156Z,5.63
2023-04-28T08:22:15.148Z,5.63
2023-04-28T08:23:15.143Z,5.63
2023-04-28T08:24:15.366Z,5.63
2023-04-28T08:25:15.138Z,5.63
2023-04-28T08:26:15.147Z,5.63
2023-04-28T08:27:15.128Z,5.63
2023-04-28T08:28:15.123Z,5.63
2023-04-28T08:29:15.130Z,5.63
2023-04-28T08:30:15.147Z,5.63
2023-04-28T08:31:15.146Z,11.25
2023-04-28T08:32:15.125Z,11.25
2023-04-28T08:33:15.147Z,11.25
2023-04-28T08:34:16.655Z,11.25
2023-04-28T08:35:15.091Z,11.25
2023-04-28T08:36:15.182Z,11.25
2023-04-28T08:37:15.112Z,11.25
2023-04-28T08:38:15.109Z,5.63
2023-04-28T08:39:15.105Z,5.63
2023-04-28T08:40:15.104Z,5.63
2023-04-28T08:41:15.089Z,5.63
2023-04-28T08:42:15.101Z,5.63
2023-04-28T08:43:15.142Z,5.63
2023-04-28T08:44:15.311Z,5.63
2023-04-28T08:45:15.102Z,5.63
2023-04-28T08:46:15.146Z,5.63
2023-04-28T08:47:15.122Z,5.63
2023-04-28T08:48:15.077Z,5.63
2023-04-28T08:49:15.057Z,5.63
2023-04-28T08:50:15.099Z,5.63
2023-04-28T08:51:15.059Z,5.63
2023-04-28T08:52:15.067Z,5.63
2023-04-28T08:53:15.080Z,5.63
2023-04-28T08:54:25.273Z,5.63
2023-04-28T08:55:15.036Z,5.63
2023-04-28T08:56:15.095Z,11.25
2023-04-28T08:57:15.058Z,5.63
2023-04-28T08:58:15.056Z,5.63
2023-04-28T08:59:15.093Z,5.63
2023-04-28T09:00:15.060Z,5.63
2023-04-28T09:01:15.032Z,5.63
2023-04-28T09:02:15.092Z,5.63
2023-04-28T09:03:15.168Z,5.63
2023-04-28T09:04:15.193Z,5.63
2023-04-28T09:05:15.245Z,5.63
2023-04-28T09:06:15.025Z,0.00
2023-04-28T09:07:15.060Z,0.00
2023-04-28T09:08:15.032Z,0.00
2023-04-28T09:09:15.127Z,0.00
2023-04-28T09:10:15.019Z,0.00
2023-04-28T09:11:15.009Z,0.00
2023-04-28T09:12:15.015Z,0.00
2023-04-28T09:13:14.981Z,0.00
2023-04-28T09:14:15.327Z,0.00
2023-04-28T09:15:14.998Z,0.00
2023-04-28T09:16:15.032Z,0.00
2023-04-28T09:17:14.991Z,0.00
2023-04-28T09:18:15.058Z,0.00
2023-04-28T09:19:14.964Z,0.00
2023-04-28T09:20:14.980Z,0.00
2023-04-28T09:21:14.980Z,0.00
2023-04-28T09:22:26.233Z,0.00
2023-04-28T09:23:14.977Z,0.00
2023-04-28T09:24:15.151Z,0.00
2023-04-28T09:25:15.068Z,0.00
2023-04-28T09:26:14.974Z,0.00
2023-04-28T09:27:14.956Z,0.00
2023-04-28T09:28:14.957Z,0.00
2023-04-28T09:29:14.962Z,0.00
2023-04-28T09:30:14.971Z,0.00
2023-04-28T09:31:14.939Z,0.00
2023-04-28T09:32:15.153Z,0.00
2023-04-28T09:33:14.993Z,0.00
2023-04-28T09:34:15.063Z,0.00
2023-04-28T09:35:14.957Z,5.63
2023-04-28T09:36:14.943Z,5.63
2023-04-28T09:37:14.956Z,5.63
2023-04-28T09:38:14.944Z,5.63
2023-04-28T09:39:14.923Z,5.63
2023-04-28T09:40:14.935Z,5.63
2023-04-28T09:41:14.955Z,5.63
2023-04-28T09:42:14.917Z,5.63
2023-04-28T09:43:21.524Z,5.63
2023-04-28T09:44:15.126Z,5.63
2023-04-28T09:45:14.928Z,5.63
2023-04-28T09:46:14.998Z,0.00
2023-04-28T09:47:14.899Z,0.00
2023-04-28T09:48:14.976Z,0.00
2023-04-28T09:49:14.896Z,0.00
2023-04-28T09:50:15.162Z,0.00
2023-04-28T09:51:14.893Z,0.00
2023-04-28T09:52:14.910Z,0.00
2023-04-28T09:53:14.909Z,0.00
2023-04-28T09:54:14.911Z,0.00
2023-04-28T09:55:14.897Z,0.00
2023-04-28T09:56:14.871Z,0.00
2023-04-28T09:57:14.892Z,0.00
2023-04-28T09:58:14.894Z,0.00
2023-04-28T09:59:14.896Z,5.63
2023-04-28T10:00:15.135Z,5.63
2023-04-28T10:01:14.889Z,5.63
2023-04-28T10:02:40.857Z,5.63
2023-04-28T10:03:14.968Z,5.63
2023-04-28T10:04:15.021Z,5.63
2023-04-28T10:05:15.022Z,5.63
2023-04-28T10:06:14.873Z,5.63
2023-04-28T10:07:14.850Z,5.63
2023-04-28T10:08:14.852Z,0.00
2023-04-28T10:09:14.842Z,0.00
2023-04-28T10:10:15.130Z,0.00
2023-04-28T10:11:14.823Z,0.00
2023-04-28T10:12:14.837Z,0.00
2023-04-28T10:13:14.858Z,0.00
2023-04-28T10:14:14.833Z,0.00
2023-04-28T10:15:14.831Z,0.00
2023-04-28T10:16:14.880Z,5.63
2023-04-28T10:17:14.802Z,5.63
2023-04-28T10:18:14.850Z,5.63
2023-04-28T10:19:14.824Z,5.63
2023-04-28T10:20:14.849Z,5.63
2023-04-28T10:21:14.797Z,5.63
2023-04-28T10:22:14.816Z,5.63
2023-04-28T10:23:14.808Z,5.63
2023-04-28T10:24:14.799Z,5.63
2023-04-28T10:25:14.800Z,5.63
2023-04-28T10:26:14.798Z,5.63
2023-04-28T10:27:14.791Z,5.63
2023-04-28T10:28:14.815Z,5.63
2023-04-28T10:29:14.835Z,5.63
2023-04-28T10:30:26.517Z,5.63
2023-04-28T10:31:14.847Z,5.63
2023-04-28T10:32:14.774Z,5.63
2023-04-28T10:33:14.988Z,5.63
2023-04-28T10:34:14.768Z,5.63
2023-04-28T10:35:14.782Z,5.63
2023-04-28T10:36:16.222Z,11.25
2023-04-28T10:37:14.765Z,11.25
2023-04-28T10:38:14.782Z,11.25
2023-04-28T10:39:14.790Z,11.25
2023-04-28T10:40:14.805Z,11.25
2023-04-28T10:41:14.743Z,5.63
2023-04-28T10:42:14.769Z,11.25
2023-04-28T10:43:14.773Z,11.25
2023-04-28T10:44:14.739Z,5.63
2023-04-28T10:45:14.772Z,5.63
2023-04-28T10:46:14.830Z,5.63
2023-04-28T10:47:14.738Z,5.63
2023-04-28T10:48:14.743Z,5.63
2023-04-28T10:49:14.748Z,5.63
2023-04-28T10:50:14.735Z,5.63
2023-04-28T10:51:14.739Z,5.63
2023-04-28T10:52:14.711Z,5.63
2023-04-28T10:53:14.754Z,5.63
2023-04-28T10:54:14.726Z,5.63
2023-04-28T10:55:22.051Z,5.63
2023-04-28T10:56:14.723Z,5.63
2023-04-28T10:57:14.712Z,5.63
2023-04-28T10:58:14.740Z,5.63
2023-04-28T10:59:14.742Z,5.63
2023-04-28T11:00:14.725Z,5.63
2023-04-28T11:01:14.776Z,11.25
2023-04-28T11:02:14.748Z,11.25
2023-04-28T11:03:14.798Z,11.25
2023-04-28T11:04:14.803Z,5.63
2023-04-28T11:05:14.913Z,5.63
2023-04-28T11:06:14.683Z,5.63
2023-04-28T11:07:14.695Z,5.63
2023-04-28T11:08:14.665Z,11.25
2023-04-28T11:09:14.703Z,11.25
2023-04-28T11:10:14.678Z,5.63
2023-04-28T11:11:14.677Z,5.63
2023-04-28T11:12:14.669Z,5.63
2023-04-28T11:13:14.666Z,11.25
2023-04-28T11:14:14.666Z,11.25
2023-04-28T11:15:14.652Z,11.25
2023-04-28T11:16:14.704Z,11.25
2023-04-28T11:17:14.668Z,11.25
2023-04-28T11:18:14.655Z,11.25
2023-04-28T11:19:14.666Z,16.88
2023-04-28T11:20:14.649Z,16.88
2023-04-28T11:21:14.640Z,11.25
2023-04-28T11:22:14.618Z,16.88
2023-04-28T11:23:14.669Z,11.25
2023-04-28T11:24:14.608Z,11.25
2023-04-28T11:25:14.618Z,11.25
2023-04-28T11:26:14.616Z,11.25
2023-04-28T11:27:14.614Z,11.25
2023-04-28T11:28:14.611Z,11.25
2023-04-28T11:29:14.617Z,11.25
2023-04-28T11:30:14.608Z,11.25
2023-04-28T11:31:14.634Z,11.25
2023-04-28T11:32:14.681Z,11.25
2023-04-28T11:33:14.691Z,11.25
2023-04-28T11:34:14.624Z,5.63
2023-04-28T11:35:14.625Z,5.63
2023-04-28T11:36:14.583Z,5.63
2023-04-28T11:37:14.902Z,5.63
2023-04-28T11:38:14.596Z,5.63
2023-04-28T11:39:14.589Z,5.63
2023-04-28T11:40:14.580Z,5.63
2023-04-28T11:41:14.569Z,5.63
2023-04-28T11:42:14.575Z,5.63
2023-04-28T11:43:14.587Z,5.63
2023-04-28T11:44:14.585Z,5.63
2023-04-28T11:45:14.581Z,5.63
2023-04-28T11:46:14.570Z,5.63
2023-04-28T11:47:14.575Z,5.63
2023-04-28T11:48:14.555Z,5.63
2023-04-28T11:49:14.652Z,5.63
2023-04-28T11:50:14.556Z,5.63
2023-04-28T11:51:14.540Z,5.63
2023-04-28T11:52:14.559Z,5.63
2023-04-28T11:53:14.566Z,5.63
2023-04-28T11:54:14.537Z,5.63
2023-04-28T11:55:14.533Z,5.63
2023-04-28T11:56:14.569Z,5.63
2023-04-28T11:57:14.633Z,5.63
2023-04-28T11:58:14.522Z,5.63
2023-04-28T11:59:14.548Z,5.63
2023-04-28T12:00:14.597Z,5.63
2023-04-28T12:01:14.548Z,11.25
2023-04-28T12:02:14.567Z,11.25
2023-04-28T12:03:14.609Z,11.25
2023-04-28T12:04:14.743Z,11.25
2023-04-28T12:05:14.544Z,11.25
2023-04-28T12:06:14.508Z,11.25
2023-04-28T12:07:14.503Z,11.25
2023-04-28T12:08:14.510Z,5.63
2023-04-28T12:09:14.517Z,5.63
2023-04-28T12:10:14.548Z,11.25
2023-04-28T12:11:14.491Z,11.25
2023-04-28T12:12:14.490Z,11.25
2023-04-28T12:13:14.488Z,11.25
2023-04-28T12:14:14.497Z,11.25
2023-04-28T12:15:14.515Z,5.63
2023-04-28T12:16:14.544Z,5.63
2023-04-28T12:17:14.492Z,11.25
2023-04-28T12:18:14.471Z,11.25
2023-04-28T12:19:14.484Z,11.25
2023-04-28T12:20:14.492Z,11.25
2023-04-28T12:21:14.510Z,11.25
2023-04-28T12:22:14.474Z,11.25
2023-04-28T12:23:14.471Z,5.63
2023-04-28T12:24:14.465Z,5.63
2023-04-28T12:25:14.467Z,5.63
2023-04-28T12:26:14.466Z,5.63
2023-04-28T12:27:14.446Z,5.63
2023-04-28T12:28:14.455Z,5.63
2023-04-28T12:29:14.451Z,11.25
2023-04-28T12:30:14.453Z,16.88
2023-04-28T12:31:14.486Z,5.63
2023-04-28T12:32:14.438Z,5.63
2023-04-28T12:33:14.437Z,5.63
2023-04-28T12:34:14.434Z,5.63
2023-04-28T12:35:14.435Z,5.63
2023-04-28T12:36:14.447Z,5.63
2023-04-28T12:37:14.432Z,5.63
2023-04-28T12:38:14.426Z,5.63
2023-04-28T12:39:14.418Z,5.63
2023-04-28T12:40:14.449Z,5.63
2023-04-28T12:41:14.411Z,5.63
2023-04-28T12:42:14.432Z,5.63
2023-04-28T12:43:14.434Z,5.63
2023-04-28T12:44:14.401Z,5.63
2023-04-28T12:45:14.410Z,5.63
2023-04-28T12:46:14.445Z,5.63
2023-04-28T12:47:14.397Z,5.63
2023-04-28T12:48:14.413Z,5.63
2023-04-28T12:49:14.396Z,5.63
2023-04-28T12:50:14.381Z,0.00
2023-04-28T12:51:14.387Z,0.00
2023-04-28T12:52:14.432Z,0.00
2023-04-28T12:53:14.415Z,0.00
2023-04-28T12:54:14.375Z,5.63
2023-04-28T12:55:14.399Z,5.63
2023-04-28T12:56:14.378Z,5.63
2023-04-28T12:57:14.390Z,5.63
2023-04-28T12:58:14.379Z,5.63
2023-04-28T12:59:14.387Z,5.63
2023-04-28T13:00:14.372Z,5.63
2023-04-28T13:01:14.406Z,5.63
2023-04-28T13:02:14.377Z,5.63
2023-04-28T13:03:14.567Z,5.63
2023-04-28T13:04:14.507Z,5.63
2023-04-28T13:05:14.408Z,5.63
2023-04-28T13:06:14.343Z,5.63
2023-04-28T13:07:14.356Z,5.63
2023-04-28T13:08:14.346Z,5.63
2023-04-28T13:09:14.371Z,5.63
2023-04-28T13:10:14.340Z,5.63
2023-04-28T13:11:22.712Z,5.63
2023-04-28T13:12:14.337Z,5.63
2023-04-28T13:13:14.337Z,5.63
2023-04-28T13:14:14.342Z,5.63
2023-04-28T13:15:14.322Z,5.63